Time;durP1;ratioP1;P1;durP2;ratioP2;P2;SDS_P1;SDS_P2;PMS_P1;PMS_P2;Temp;Humidity;BMP_temperature;BMP_pressure;BME280_temperature;BME280_humidity;BME280_pressure;Samples;Min_cycle;Max_cycle;Signal;HPM_P1;HPM_P2
2022/10/29 00:01:10;;;;;;;15.02;6.70;;;;;;;;;;5032765;28;20025;-67
2022/10/29 00:03:36;;;;;;;38.45;6.63;;;;;;;;;;5027641;28;20034;-69
2022/10/29 00:06:02;;;;;;;16.80;6.82;;;;;;;;;;5024296;28;20025;-65
2022/10/29 00:08:28;;;;;;;24.05;7.10;;;;;;;;;;5011617;28;20034;-68
2022/10/29 00:10:53;;;;;;;24.45;6.35;;;;;;;;;;5011314;28;20037;-67
2022/10/29 00:13:19;;;;;;;20.80;7.28;;;;;;;;;;5011477;28;20022;-66
2022/10/29 00:15:44;;;;;;;21.05;6.45;;;;;;;;;;5025064;28;20059;-68
2022/10/29 00:18:09;;;;;;;37.10;8.07;;;;;;;;;;5014849;28;20068;-69
2022/10/29 00:20:34;;;;;;;28.52;7.32;;;;;;;;;;5008912;28;20388;-67
2022/10/29 00:23:00;;;;;;;17.00;6.23;;;;;;;;;;5014513;28;20055;-67
2022/10/29 00:25:25;;;;;;;18.52;6.32;;;;;;;;;;5031890;28;20279;-69
2022/10/29 00:27:50;;;;;;;17.15;5.95;;;;;;;;;;5028801;28;20017;-67
2022/10/29 00:30:15;;;;;;;16.83;5.03;;;;;;;;;;5023355;28;20029;-69
2022/10/29 00:32:40;;;;;;;18.30;5.90;;;;;;;;;;5028195;28;20266;-69
2022/10/29 00:35:06;;;;;;;23.70;7.30;;;;;;;;;;5011711;28;20116;-67
2022/10/29 00:37:31;;;;;;;17.98;5.78;;;;;;;;;;5011053;28;20036;-68
2022/10/29 00:39:56;;;;;;;18.08;6.10;;;;;;;;;;5011491;28;20041;-68
2022/10/29 00:42:21;;;;;;;23.37;5.77;;;;;;;;;;5013321;28;20096;-68
2022/10/29 00:44:46;;;;;;;20.90;5.97;;;;;;;;;;5026358;28;20385;-67
2022/10/29 00:47:15;;;;;;;14.43;4.67;;;;;;;;;;5014534;28;20029;-67
2022/10/29 00:49:41;;;;;;;18.90;5.95;;;;;;;;;;5011599;28;20239;-69
2022/10/29 00:52:07;;;;;;;16.52;6.32;;;;;;;;;;5011544;28;20109;-65
2022/10/29 00:54:34;;;;;;;29.73;6.22;;;;;;;;;;5009276;28;20049;-66
2022/10/29 00:57:02;;;;;;;20.65;5.85;;;;;;;;;;5012295;28;20075;-71
2022/10/29 00:59:27;;;;;;;17.25;4.78;;;;;;;;;;5022075;28;20045;-69
2022/10/29 01:01:54;;;;;;;20.48;5.25;;;;;;;;;;5027331;28;20132;-67
2022/10/29 01:04:20;;;;;;;20.27;6.05;;;;;;;;;;5024200;28;20014;-69
2022/10/29 01:06:46;;;;;;;15.50;6.88;;;;;;;;;;5029130;28;20446;-69
2022/10/29 01:09:11;;;;;;;17.88;5.72;;;;;;;;;;5030452;28;20014;-68
2022/10/29 01:11:55;;;;;;;25.38;5.53;;;;;;;;;;5023940;28;20037;-68
2022/10/29 01:14:39;;;;;;;27.38;5.30;;;;;;;;;;5030184;28;20017;-67
2022/10/29 01:17:09;;;;;;;22.83;6.22;;;;;;;;;;5027767;28;20088;-69
2022/10/29 01:19:34;;;;;;;21.02;5.00;;;;;;;;;;5028984;28;20060;-68
2022/10/29 01:22:12;;;;;;;18.07;5.73;;;;;;;;;;5011149;28;20500;-70
2022/10/29 01:24:37;;;;;;;16.02;5.35;;;;;;;;;;5026518;28;20262;-68
2022/10/29 01:27:21;;;;;;;20.10;4.60;;;;;;;;;;5030751;28;20156;-69
2022/10/29 01:29:58;;;;;;;15.73;4.93;;;;;;;;;;5034171;28;20764;-68
2022/10/29 01:32:41;;;;;;;16.98;5.30;;;;;;;;;;5027211;28;20026;-69
2022/10/29 01:35:13;;;;;;;15.77;4.65;;;;;;;;;;5022281;28;20064;-69
2022/10/29 01:37:46;;;;;;;15.65;5.07;;;;;;;;;;5032768;28;20053;-69
2022/10/29 01:40:24;;;;;;;13.43;4.97;;;;;;;;;;5035954;28;20051;-67
2022/10/29 01:42:52;;;;;;;17.33;5.10;;;;;;;;;;5035657;28;20029;-69
2022/10/29 01:45:47;;;;;;;16.00;5.35;;;;;;;;;;5033621;28;20021;-66
2022/10/29 01:48:15;;;;;;;15.77;5.32;;;;;;;;;;4991135;28;20027;-68
2022/10/29 01:50:42;;;;;;;20.13;6.37;;;;;;;;;;5032294;28;20018;-68
2022/10/29 01:53:08;;;;;;;18.70;5.97;;;;;;;;;;5035261;28;20014;-69
2022/10/29 01:55:34;;;;;;;14.70;5.07;;;;;;;;;;5029959;28;20619;-67
2022/10/29 01:58:00;;;;;;;9.93;5.00;;;;;;;;;;5022545;28;20100;-66
2022/10/29 02:00:25;;;;;;;21.65;5.15;;;;;;;;;;5017400;28;20111;-68
2022/10/29 02:02:53;;;;;;;16.17;5.10;;;;;;;;;;5030966;28;20029;-68
2022/10/29 02:05:27;;;;;;;12.40;4.60;;;;;;;;;;5032850;28;20334;-68
2022/10/29 02:07:58;;;;;;;14.55;4.90;;;;;;;;;;5029992;28;20018;-68
2022/10/29 02:10:31;;;;;;;19.75;5.47;;;;;;;;;;5033322;28;20021;-69
2022/10/29 02:12:56;;;;;;;14.75;5.18;;;;;;;;;;5033689;28;20238;-68
2022/10/29 02:15:30;;;;;;;19.98;5.45;;;;;;;;;;5032209;28;20426;-67
2022/10/29 02:17:59;;;;;;;18.05;5.13;;;;;;;;;;5025363;28;20032;-67
2022/10/29 02:20:24;;;;;;;;;;;;;;;;;;5025219;28;20483;-69
2022/10/29 02:22:50;;;;;;;15.00;5.13;;;;;;;;;;5027389;28;20385;-69
2022/10/29 02:25:15;;;;;;;19.50;5.05;;;;;;;;;;5014818;28;20048;-68
2022/10/29 02:27:40;;;;;;;14.95;4.20;;;;;;;;;;5014772;28;20101;-66
2022/10/29 02:30:06;;;;;;;16.00;4.45;;;;;;;;;;5020004;28;20032;-69
2022/10/29 02:32:31;;;;;;;16.30;5.00;;;;;;;;;;5031640;28;20033;-67
2022/10/29 02:34:57;;;;;;;28.38;4.65;;;;;;;;;;5014480;28;20024;-68
2022/10/29 02:37:22;;;;;;;12.30;5.22;;;;;;;;;;5012631;28;20024;-68
2022/10/29 02:39:47;;;;;;;20.02;5.43;;;;;;;;;;5025055;28;20446;-69
2022/10/29 02:42:12;;;;;;;22.00;6.40;;;;;;;;;;5026656;28;20068;-67
2022/10/29 02:44:37;;;;;;;16.23;4.82;;;;;;;;;;5013057;28;20945;-68
2022/10/29 02:47:03;;;;;;;18.42;5.07;;;;;;;;;;5012745;28;20037;-67
2022/10/29 02:49:28;;;;;;;18.65;5.78;;;;;;;;;;5024915;28;20026;-68
2022/10/29 02:51:53;;;;;;;16.30;4.70;;;;;;;;;;5013004;28;20029;-69
2022/10/29 02:54:18;;;;;;;14.57;5.10;;;;;;;;;;5012183;28;20484;-67
2022/10/29 02:56:44;;;;;;;10.55;4.40;;;;;;;;;;5012741;28;20260;-68
2022/10/29 02:59:09;;;;;;;11.38;4.95;;;;;;;;;;5012887;28;20036;-65
2022/10/29 03:01:34;;;;;;;14.70;6.07;;;;;;;;;;5012002;28;20018;-67
2022/10/29 03:03:59;;;;;;;29.27;5.63;;;;;;;;;;5029801;28;20267;-67
2022/10/29 03:06:24;;;;;;;22.35;5.47;;;;;;;;;;5030602;28;20342;-68
2022/10/29 03:08:50;;;;;;;12.85;5.55;;;;;;;;;;5032320;28;20018;-67
2022/10/29 03:11:15;;;;;;;22.88;5.40;;;;;;;;;;5031845;28;20550;-69
2022/10/29 03:13:40;;;;;;;17.60;5.45;;;;;;;;;;5032597;28;20853;-67
2022/10/29 03:16:06;;;;;;;13.68;4.85;;;;;;;;;;5032855;28;20048;-67
2022/10/29 03:18:31;;;;;;;14.48;5.15;;;;;;;;;;5032086;28;20104;-68
2022/10/29 03:20:56;;;;;;;16.08;5.63;;;;;;;;;;5033470;28;20541;-68
2022/10/29 03:23:22;;;;;;;14.50;5.38;;;;;;;;;;5020453;28;20072;-68
2022/10/29 03:25:52;;;;;;;18.40;5.63;;;;;;;;;;5032806;28;20494;-66
2022/10/29 03:28:19;;;;;;;27.15;5.65;;;;;;;;;;5031354;28;20037;-67
2022/10/29 03:30:44;;;;;;;14.05;5.20;;;;;;;;;;5029803;28;20046;-69
2022/10/29 03:33:10;;;;;;;18.60;5.75;;;;;;;;;;5031918;28;20049;-68
2022/10/29 03:35:35;;;;;;;18.30;5.30;;;;;;;;;;5031217;28;20048;-68
2022/10/29 03:38:00;;;;;;;17.02;6.15;;;;;;;;;;5030824;28;20018;-68
2022/10/29 03:40:25;;;;;;;16.40;5.55;;;;;;;;;;5032392;28;20029;-68
2022/10/29 03:42:50;;;;;;;17.52;5.30;;;;;;;;;;5031016;28;20029;-69
2022/10/29 03:45:16;;;;;;;14.80;5.78;;;;;;;;;;5020781;28;20017;-68
2022/10/29 03:47:41;;;;;;;13.82;4.82;;;;;;;;;;5027389;28;20022;-68
2022/10/29 03:50:06;;;;;;;9.20;4.35;;;;;;;;;;5030032;28;20509;-67
2022/10/29 03:52:32;;;;;;;16.35;5.82;;;;;;;;;;5027814;28;20117;-68
2022/10/29 03:54:57;;;;;;;18.73;6.05;;;;;;;;;;5029617;28;20144;-67
2022/10/29 03:57:22;;;;;;;22.58;6.68;;;;;;;;;;5029457;28;20017;-68
2022/10/29 03:59:47;;;;;;;17.05;5.80;;;;;;;;;;5019867;28;20029;-68
2022/10/29 04:02:13;;;;;;;16.45;6.22;;;;;;;;;;5026229;28;20036;-68
2022/10/29 04:04:38;;;;;;;18.05;6.05;;;;;;;;;;5025978;28;20052;-68
2022/10/29 04:07:03;;;;;;;15.40;6.63;;;;;;;;;;5029318;28;20356;-68
2022/10/29 04:09:29;;;;;;;11.80;5.35;;;;;;;;;;5030243;28;20061;-67
2022/10/29 04:11:54;;;;;;;22.35;5.40;;;;;;;;;;5024602;28;20367;-69
2022/10/29 04:14:19;;;;;;;13.38;5.55;;;;;;;;;;5031695;28;20055;-67
2022/10/29 04:16:44;;;;;;;19.80;6.45;;;;;;;;;;5029067;28;20025;-67
2022/10/29 04:19:09;;;;;;;17.20;6.22;;;;;;;;;;5030572;28;20017;-68
2022/10/29 04:21:35;;;;;;;12.18;5.63;;;;;;;;;;5030254;28;20025;-67
2022/10/29 04:24:00;;;;;;;23.05;6.47;;;;;;;;;;5029158;28;20029;-69
2022/10/29 04:26:25;;;;;;;17.67;6.27;;;;;;;;;;5025561;28;20030;-68
2022/10/29 04:28:50;;;;;;;23.98;5.90;;;;;;;;;;5022827;28;20247;-68
2022/10/29 04:31:16;;;;;;;18.30;6.18;;;;;;;;;;5029778;28;20021;-67
2022/10/29 04:33:42;;;;;;;21.00;6.65;;;;;;;;;;5019728;28;20503;-68
2022/10/29 04:36:07;;;;;;;19.80;6.10;;;;;;;;;;5026852;28;20541;-69
2022/10/29 04:38:32;;;;;;;26.70;5.63;;;;;;;;;;5030252;28;20087;-69
2022/10/29 04:40:58;;;;;;;20.40;6.97;;;;;;;;;;5030569;28;20044;-68
2022/10/29 04:43:23;;;;;;;20.38;6.70;;;;;;;;;;5030981;28;20017;-68
2022/10/29 04:45:52;;;;;;;14.18;5.70;;;;;;;;;;5029392;28;20017;-66
2022/10/29 04:48:18;;;;;;;20.05;6.00;;;;;;;;;;5019991;28;20044;-66
2022/10/29 04:50:43;;;;;;;16.45;5.72;;;;;;;;;;5011663;28;20010;-68
2022/10/29 04:53:08;;;;;;;20.23;5.63;;;;;;;;;;5013009;28;20018;-68
2022/10/29 04:55:37;;;;;;;18.85;6.97;;;;;;;;;;5028443;28;20490;-66
2022/10/29 04:58:02;;;;;;;;;;;;;;;;;;5021720;28;20026;-69
2022/10/29 05:00:28;;;;;;;11.90;6.20;;;;;;;;;;5012068;28;19905;-67
2022/10/29 05:02:53;;;;;;;19.70;6.30;;;;;;;;;;5025303;28;20483;-69
2022/10/29 05:05:19;;;;;;;26.83;8.00;;;;;;;;;;5032679;28;20254;-69
2022/10/29 05:07:44;;;;;;;18.48;7.47;;;;;;;;;;5033508;28;20101;-70
2022/10/29 05:10:10;;;;;;;19.52;7.13;;;;;;;;;;5034042;28;20092;-69
2022/10/29 05:12:35;;;;;;;18.45;7.10;;;;;;;;;;5030052;28;20026;-68
2022/10/29 05:15:00;;;;;;;14.23;6.50;;;;;;;;;;5032499;28;20025;-68
2022/10/29 05:17:25;;;;;;;19.63;7.25;;;;;;;;;;5032348;28;20107;-70
2022/10/29 05:19:51;;;;;;;21.27;7.03;;;;;;;;;;5036889;28;20021;-69
2022/10/29 05:22:16;;;;;;;19.83;6.82;;;;;;;;;;5033728;28;20030;-70
2022/10/29 05:24:41;;;;;;;22.05;8.63;;;;;;;;;;5031559;28;20412;-69
2022/10/29 05:27:07;;;;;;;21.60;7.63;;;;;;;;;;5015036;28;20105;-68
2022/10/29 05:29:32;;;;;;;16.05;6.57;;;;;;;;;;5031526;28;20151;-68
2022/10/29 05:31:57;;;;;;;16.10;6.95;;;;;;;;;;5029170;28;20387;-67
2022/10/29 05:34:22;;;;;;;20.25;7.43;;;;;;;;;;5033359;28;20040;-66
2022/10/29 05:36:48;;;;;;;17.02;7.07;;;;;;;;;;5023821;28;20040;-67
2022/10/29 05:39:13;;;;;;;28.98;7.20;;;;;;;;;;5015320;28;20543;-67
2022/10/29 05:41:38;;;;;;;15.50;7.07;;;;;;;;;;5015313;28;20171;-69
2022/10/29 05:44:03;;;;;;;20.42;7.65;;;;;;;;;;5014247;28;20374;-70
2022/10/29 05:46:28;;;;;;;20.70;8.43;;;;;;;;;;5013512;28;20417;-68
2022/10/29 05:48:54;;;;;;;17.60;7.03;;;;;;;;;;5031285;28;20018;-66
2022/10/29 05:51:19;;;;;;;23.02;8.77;;;;;;;;;;5019074;28;20080;-68
2022/10/29 05:53:45;;;;;;;20.33;8.48;;;;;;;;;;5025833;28;20037;-67
2022/10/29 05:56:10;;;;;;;22.42;8.80;;;;;;;;;;5033060;28;20021;-69
2022/10/29 05:58:36;;;;;;;28.48;7.55;;;;;;;;;;5018795;28;20030;-66
2022/10/29 06:01:04;;;;;;;21.77;7.10;;;;;;;;;;5014861;28;20062;-67
2022/10/29 06:03:29;;;;;;;25.33;8.05;;;;;;;;;;5029928;28;20090;-69
2022/10/29 06:05:54;;;;;;;23.95;7.90;;;;;;;;;;5032635;28;20025;-67
2022/10/29 06:08:20;;;;;;;20.77;7.13;;;;;;;;;;5033376;28;20049;-67
2022/10/29 06:10:45;;;;;;;18.63;7.43;;;;;;;;;;5030646;28;20049;-68
2022/10/29 06:13:10;;;;;;;17.73;7.28;;;;;;;;;;5026579;28;20096;-68
2022/10/29 06:15:35;;;;;;;25.88;8.95;;;;;;;;;;5021953;28;20050;-68
2022/10/29 06:18:01;;;;;;;29.98;9.32;;;;;;;;;;5030830;28;20108;-66
2022/10/29 06:20:26;;;;;;;31.23;8.07;;;;;;;;;;5033702;28;20102;-69
2022/10/29 06:22:56;;;;;;;29.70;8.65;;;;;;;;;;5033151;28;20402;-66
2022/10/29 06:25:24;;;;;;;17.48;7.22;;;;;;;;;;5033789;28;20020;-67
2022/10/29 06:28:00;;;;;;;19.63;8.27;;;;;;;;;;5032851;28;20045;-66
2022/10/29 06:30:25;;;;;;;35.10;9.20;;;;;;;;;;5028733;28;20036;-68
2022/10/29 06:32:50;;;;;;;23.42;8.50;;;;;;;;;;5034785;28;20025;-68
2022/10/29 06:35:16;;;;;;;32.23;9.20;;;;;;;;;;5034668;28;20028;-68
2022/10/29 06:37:41;;;;;;;27.60;10.65;;;;;;;;;;5032544;28;20246;-68
2022/10/29 06:40:06;;;;;;;28.15;9.50;;;;;;;;;;5032495;28;20029;-68
2022/10/29 06:42:31;;;;;;;32.33;9.05;;;;;;;;;;5032735;28;20508;-69
2022/10/29 06:44:57;;;;;;;23.73;8.63;;;;;;;;;;5032748;28;20053;-69
2022/10/29 06:47:22;;;;;;;22.97;9.20;;;;;;;;;;5031593;28;20097;-69
2022/10/29 06:49:47;;;;;;;33.72;8.75;;;;;;;;;;5030904;28;20258;-67
2022/10/29 06:52:12;;;;;;;30.00;10.00;;;;;;;;;;5030871;28;20029;-67
2022/10/29 06:54:38;;;;;;;18.27;6.97;;;;;;;;;;5033332;28;20029;-69
2022/10/29 06:57:03;;;;;;;25.58;8.05;;;;;;;;;;5017875;28;20064;-69
2022/10/29 06:59:28;;;;;;;23.95;10.52;;;;;;;;;;5022489;28;20503;-68
2022/10/29 07:01:53;;;;;;;22.73;7.97;;;;;;;;;;5030073;28;20025;-67
2022/10/29 07:04:19;;;;;;;28.83;8.43;;;;;;;;;;5031985;28;20045;-69
2022/10/29 07:06:44;;;;;;;31.30;9.75;;;;;;;;;;5029677;28;20101;-70
2022/10/29 07:09:10;;;;;;;27.38;9.10;;;;;;;;;;5030932;28;20093;-68
2022/10/29 07:11:35;;;;;;;24.47;8.70;;;;;;;;;;5025402;28;20514;-67
2022/10/29 07:14:00;;;;;;;37.23;9.10;;;;;;;;;;5025275;28;20293;-65
2022/10/29 07:16:25;;;;;;;22.75;8.80;;;;;;;;;;5030002;28;20261;-68
2022/10/29 07:18:51;;;;;;;31.48;9.25;;;;;;;;;;5021243;28;20056;-67
2022/10/29 07:21:16;;;;;;;21.55;8.40;;;;;;;;;;5027069;28;20025;-65
2022/10/29 07:23:42;;;;;;;26.33;8.48;;;;;;;;;;5024719;28;20113;-67
2022/10/29 07:26:07;;;;;;;23.67;7.63;;;;;;;;;;5025752;28;20040;-66
2022/10/29 07:28:32;;;;;;;20.17;9.15;;;;;;;;;;5019579;28;20029;-67
2022/10/29 07:30:58;;;;;;;37.78;8.40;;;;;;;;;;5026247;28;20020;-67
2022/10/29 07:33:24;;;;;;;20.00;7.18;;;;;;;;;;5029344;28;20048;-68
2022/10/29 07:35:49;;;;;;;30.63;8.18;;;;;;;;;;5014959;28;20476;-67
2022/10/29 07:38:14;;;;;;;25.10;8.00;;;;;;;;;;5016859;28;20029;-67
2022/10/29 07:40:45;;;;;;;22.67;8.18;;;;;;;;;;5018297;28;20030;-68
2022/10/29 07:43:10;;;;;;;18.77;7.57;;;;;;;;;;5017510;28;20021;-67
2022/10/29 07:45:35;;;;;;;20.60;7.80;;;;;;;;;;5020431;28;20028;-65
2022/10/29 07:48:02;;;;;;;23.13;8.50;;;;;;;;;;5013635;28;20278;-69
2022/10/29 07:50:27;;;;;;;20.63;8.60;;;;;;;;;;5022403;28;20028;-66
2022/10/29 07:52:53;;;;;;;30.23;8.80;;;;;;;;;;5025844;28;20037;-68
2022/10/29 07:55:18;;;;;;;21.02;7.75;;;;;;;;;;5028172;28;20021;-66
2022/10/29 07:57:43;;;;;;;26.13;8.27;;;;;;;;;;5022675;28;20053;-69
2022/10/29 08:00:09;;;;;;;25.00;6.95;;;;;;;;;;5029968;28;20514;-66
2022/10/29 08:02:35;;;;;;;20.05;7.97;;;;;;;;;;5018875;28;20487;-69
2022/10/29 08:05:00;;;;;;;33.70;8.32;;;;;;;;;;5028486;28;20045;-67
2022/10/29 08:07:25;;;;;;;29.37;8.70;;;;;;;;;;5028602;28;20016;-67
2022/10/29 08:09:50;;;;;;;31.58;9.18;;;;;;;;;;5029774;28;20344;-67
2022/10/29 08:12:16;;;;;;;40.22;11.20;;;;;;;;;;5030063;28;20410;-68
2022/10/29 08:14:41;;;;;;;36.05;11.82;;;;;;;;;;5028714;28;20061;-69
2022/10/29 08:17:06;;;;;;;30.05;9.35;;;;;;;;;;5023877;28;20025;-67
2022/10/29 08:19:32;;;;;;;36.95;10.27;;;;;;;;;;5028663;28;20037;-69
2022/10/29 08:21:57;;;;;;;31.45;10.10;;;;;;;;;;5029544;28;20030;-69
2022/10/29 08:24:22;;;;;;;25.50;9.97;;;;;;;;;;5029607;28;20570;-68
2022/10/29 08:26:48;;;;;;;31.45;10.05;;;;;;;;;;5029352;28;20251;-67
2022/10/29 08:29:13;;;;;;;33.15;8.65;;;;;;;;;;5027090;28;20017;-68
2022/10/29 08:31:39;;;;;;;30.85;9.43;;;;;;;;;;5027582;28;20026;-67
2022/10/29 08:34:05;;;;;;;23.17;7.57;;;;;;;;;;5028872;28;20017;-68
2022/10/29 08:36:30;;;;;;;26.88;7.07;;;;;;;;;;5027388;28;20021;-66
2022/10/29 08:38:55;;;;;;;37.47;7.10;;;;;;;;;;5029030;28;20044;-68
2022/10/29 08:41:39;;;;;;;19.02;7.18;;;;;;;;;;5029170;28;20400;-68
2022/10/29 08:44:24;;;;;;;24.58;8.75;;;;;;;;;;5021320;28;20032;-67
2022/10/29 08:46:53;;;;;;;18.58;7.25;;;;;;;;;;5021034;28;20017;-68
2022/10/29 08:49:20;;;;;;;21.48;6.65;;;;;;;;;;5022257;28;20017;-67
2022/10/29 08:51:50;;;;;;;24.00;6.75;;;;;;;;;;5020064;28;20033;-69
2022/10/29 08:54:16;;;;;;;19.90;6.88;;;;;;;;;;5022359;28;20033;-67
2022/10/29 08:56:47;;;;;;;26.88;7.00;;;;;;;;;;5022655;28;20041;-68
2022/10/29 08:59:13;;;;;;;19.77;7.35;;;;;;;;;;5022568;28;20041;-66
2022/10/29 09:01:38;;;;;;;23.85;6.72;;;;;;;;;;5021502;28;20034;-70
2022/10/29 09:04:17;;;;;;;33.00;7.82;;;;;;;;;;5024479;28;20029;-66
2022/10/29 09:06:42;;;;;;;;;;;;;;;;;;5022158;28;20049;-68
2022/10/29 09:09:19;;;;;;;24.33;6.70;;;;;;;;;;5022400;28;19971;-69
2022/10/29 09:11:44;;;;;;;17.85;6.30;;;;;;;;;;5022737;28;20352;-68
2022/10/29 09:14:28;;;;;;;32.10;6.90;;;;;;;;;;5022492;28;20889;-67
2022/10/29 09:16:53;;;;;;;23.90;6.95;;;;;;;;;;5019999;28;20767;-68
2022/10/29 09:19:35;;;;;;;38.80;10.03;;;;;;;;;;5023217;28;20059;-67
2022/10/29 09:22:19;;;;;;;17.77;6.80;;;;;;;;;;5021836;28;20798;-67
2022/10/29 09:25:03;;;;;;;24.45;6.53;;;;;;;;;;5023859;28;20021;-67
2022/10/29 09:27:28;;;;;;;24.92;6.60;;;;;;;;;;5025979;28;20021;-65
2022/10/29 09:29:56;;;;;;;24.65;8.18;;;;;;;;;;5025544;28;20032;-65
2022/10/29 09:32:42;;;;;;;34.00;7.35;;;;;;;;;;5022447;28;20144;-67
2022/10/29 09:35:13;;;;;;;27.48;7.13;;;;;;;;;;5020724;28;20275;-67
2022/10/29 09:37:41;;;;;;;34.78;6.88;;;;;;;;;;5021185;28;20082;-69
2022/10/29 09:40:15;;;;;;;24.67;6.40;;;;;;;;;;5020059;28;20048;-68
2022/10/29 09:42:42;;;;;;;28.63;7.85;;;;;;;;;;5020646;28;20025;-65
2022/10/29 09:45:13;;;;;;;26.45;7.50;;;;;;;;;;5020091;28;20085;-67
2022/10/29 09:47:57;;;;;;;28.63;7.38;;;;;;;;;;5023196;28;20091;-68
2022/10/29 09:50:22;;;;;;;24.63;6.60;;;;;;;;;;5024008;28;20025;-67
2022/10/29 09:52:48;;;;;;;24.77;6.90;;;;;;;;;;5025486;28;20037;-70
2022/10/29 09:55:24;;;;;;;25.52;8.27;;;;;;;;;;5022686;28;20026;-68
2022/10/29 09:57:49;;;;;;;24.10;7.20;;;;;;;;;;5024261;28;20033;-70
2022/10/29 10:00:17;;;;;;;27.23;8.65;;;;;;;;;;5023651;28;20036;-66
2022/10/29 10:02:58;;;;;;;30.45;6.93;;;;;;;;;;5024519;28;20553;-68
2022/10/29 10:05:25;;;;;;;22.35;7.40;;;;;;;;;;5025309;28;20042;-69
2022/10/29 10:08:06;;;;;;;31.75;9.10;;;;;;;;;;5024199;28;20091;-68
2022/10/29 10:10:32;;;;;;;34.33;8.02;;;;;;;;;;5026430;28;20029;-68
2022/10/29 10:13:01;;;;;;;29.42;9.02;;;;;;;;;;5026337;28;20033;-68
2022/10/29 10:15:29;;;;;;;26.92;8.23;;;;;;;;;;5024048;28;20174;-66
2022/10/29 10:18:14;;;;;;;22.38;6.00;;;;;;;;;;5022966;28;20029;-69
2022/10/29 10:20:43;;;;;;;26.08;7.50;;;;;;;;;;5024624;28;20105;-68
2022/10/29 10:23:22;;;;;;;31.27;7.50;;;;;;;;;;5021122;28;20101;-70
2022/10/29 10:25:48;;;;;;;25.48;7.63;;;;;;;;;;5020685;28;20059;-68
2022/10/29 10:28:16;;;;;;;21.90;6.40;;;;;;;;;;5023194;28;20036;-70
2022/10/29 10:30:42;;;;;;;23.38;7.50;;;;;;;;;;5024302;28;20058;-67
2022/10/29 10:33:25;;;;;;;31.63;6.90;;;;;;;;;;5021047;28;20029;-67
2022/10/29 10:35:54;;;;;;;26.25;6.65;;;;;;;;;;5021402;28;20029;-67
2022/10/29 10:38:20;;;;;;;37.72;7.47;;;;;;;;;;5018557;28;20036;-68
2022/10/29 10:40:53;;;;;;;20.20;6.88;;;;;;;;;;5020085;28;20033;-67
2022/10/29 10:43:20;;;;;;;30.23;9.38;;;;;;;;;;5020541;28;20026;-67
2022/10/29 10:45:51;;;;;;;20.02;7.80;;;;;;;;;;5019981;28;20472;-67
2022/10/29 10:48:16;;;;;;;26.48;7.95;;;;;;;;;;5018383;28;20024;-69
2022/10/29 10:50:42;;;;;;;28.42;7.68;;;;;;;;;;5023585;28;20017;-68
2022/10/29 10:53:16;;;;;;;26.80;7.18;;;;;;;;;;5021173;28;20037;-68
2022/10/29 10:55:45;;;;;;;24.10;7.13;;;;;;;;;;5020261;28;20071;-68
2022/10/29 10:58:26;;;;;;;25.77;7.18;;;;;;;;;;5021838;28;20017;-67
2022/10/29 11:01:02;;;;;;;25.77;7.30;;;;;;;;;;5020732;28;20033;-65
2022/10/29 11:03:45;;;;;;;21.65;7.00;;;;;;;;;;5024360;28;20033;-67
2022/10/29 11:06:15;;;;;;;18.80;6.55;;;;;;;;;;5021249;28;20041;-67
2022/10/29 11:08:44;;;;;;;22.20;5.90;;;;;;;;;;5023125;28;20048;-65
2022/10/29 11:11:09;;;;;;;;;;;;;;;;;;5022158;28;20029;-67
2022/10/29 11:13:37;;;;;;;27.35;7.32;;;;;;;;;;5023214;28;19917;-67
2022/10/29 11:16:03;;;;;;;;;;;;;;;;;;5022322;28;20028;-67
2022/10/29 11:18:32;;;;;;;16.67;6.22;;;;;;;;;;5020596;28;19913;-66
2022/10/29 11:21:04;;;;;;;21.13;6.38;;;;;;;;;;5016905;28;20026;-66
2022/10/29 11:23:42;;;;;;;32.03;8.35;;;;;;;;;;5019252;28;20026;-67
2022/10/29 11:26:07;;;;;;;32.65;8.10;;;;;;;;;;5021250;28;20024;-67
2022/10/29 11:28:32;;;;;;;23.70;9.40;;;;;;;;;;5016928;28;20025;-68
2022/10/29 11:31:09;;;;;;;27.17;8.50;;;;;;;;;;5020697;28;20021;-67
2022/10/29 11:33:41;;;;;;;22.98;7.63;;;;;;;;;;5022841;28;20301;-67
2022/10/29 11:36:20;;;;;;;27.33;8.50;;;;;;;;;;5020528;28;20017;-67
2022/10/29 11:39:09;;;;;;;34.20;8.85;;;;;;;;;;5020238;28;20087;-66
2022/10/29 11:41:42;;;;;;;32.42;8.07;;;;;;;;;;5007917;28;20045;-67
2022/10/29 11:44:10;;;;;;;17.92;8.02;;;;;;;;;;5022945;28;20040;-67
2022/10/29 11:46:38;;;;;;;32.53;7.72;;;;;;;;;;5021561;28;20018;-67
2022/10/29 11:49:03;;;;;;;24.25;8.93;;;;;;;;;;5022619;28;20105;-67
2022/10/29 11:51:36;;;;;;;27.95;8.27;;;;;;;;;;5021556;28;20037;-67
2022/10/29 11:54:17;;;;;;;25.30;9.60;;;;;;;;;;5022209;28;20764;-67
2022/10/29 11:56:45;;;;;;;27.27;10.15;;;;;;;;;;5014717;28;20588;-66
2022/10/29 11:59:10;;;;;;;24.65;8.27;;;;;;;;;;5019703;28;20025;-69
2022/10/29 12:01:47;;;;;;;22.50;7.73;;;;;;;;;;5019334;28;20630;-68
2022/10/29 12:04:15;;;;;;;40.63;8.88;;;;;;;;;;5016063;28;20286;-66
2022/10/29 12:06:53;;;;;;;33.00;8.95;;;;;;;;;;5018606;28;20029;-67
2022/10/29 12:09:18;;;;;;;31.73;8.95;;;;;;;;;;5018208;28;20605;-68
2022/10/29 12:11:49;;;;;;;26.17;7.77;;;;;;;;;;5019580;28;20026;-68
2022/10/29 12:14:29;;;;;;;36.88;8.88;;;;;;;;;;5020602;28;20270;-67
2022/10/29 12:17:10;;;;;;;32.08;8.40;;;;;;;;;;5021739;28;20035;-67
2022/10/29 12:19:39;;;;;;;81.10;9.20;;;;;;;;;;5020348;28;20060;-68
2022/10/29 12:22:05;;;;;;;28.67;7.78;;;;;;;;;;5021208;28;20040;-68
2022/10/29 12:24:30;;;;;;;21.33;7.35;;;;;;;;;;5021894;28;20022;-68
2022/10/29 12:27:14;;;;;;;26.00;6.63;;;;;;;;;;5022400;28;20021;-67
2022/10/29 12:29:59;;;;;;;26.75;8.25;;;;;;;;;;5022718;28;20026;-70
2022/10/29 12:32:45;;;;;;;26.83;8.52;;;;;;;;;;5019325;28;20061;-73
2022/10/29 12:35:16;;;;;;;23.92;6.60;;;;;;;;;;4984609;28;20040;-67
2022/10/29 12:38:00;;;;;;;33.65;8.15;;;;;;;;;;5017008;28;20622;-68
2022/10/29 12:40:30;;;;;;;25.67;6.20;;;;;;;;;;5021541;28;20115;-67
2022/10/29 12:42:56;;;;;;;32.42;8.23;;;;;;;;;;5023319;28;20029;-65
2022/10/29 12:45:32;;;;;;;28.85;8.55;;;;;;;;;;5023314;28;20132;-67
2022/10/29 12:48:08;;;;;;;27.15;7.28;;;;;;;;;;5019237;28;20029;-65
2022/10/29 12:50:33;;;;;;;25.02;7.78;;;;;;;;;;5021898;28;20031;-67
2022/10/29 12:53:17;;;;;;;16.63;6.63;;;;;;;;;;5023087;28;20383;-64
2022/10/29 12:55:45;;;;;;;31.90;8.25;;;;;;;;;;5022243;28;20274;-65
2022/10/29 12:58:29;;;;;;;32.33;8.13;;;;;;;;;;5020403;28;20033;-64
2022/10/29 13:00:54;;;;;;;28.42;7.20;;;;;;;;;;5022732;28;20411;-66
2022/10/29 13:03:39;;;;;;;30.08;8.43;;;;;;;;;;5018691;28;20037;-66
2022/10/29 13:06:22;;;;;;;23.25;6.70;;;;;;;;;;5023534;28;20101;-68
2022/10/29 13:08:55;;;;;;;29.73;8.02;;;;;;;;;;5020258;28;20112;-69
2022/10/29 13:11:22;;;;;;;19.52;7.22;;;;;;;;;;5020836;28;20091;-69
2022/10/29 13:13:51;;;;;;;31.73;11.32;;;;;;;;;;5018896;28;20386;-66
2022/10/29 13:16:16;;;;;;;;;;;;;;;;;;5019844;28;20505;-67
2022/10/29 13:18:55;;;;;;;28.20;8.00;;;;;;;;;;5019970;28;19905;-68
2022/10/29 13:21:40;;;;;;;28.27;7.28;;;;;;;;;;5019651;28;20277;-67
2022/10/29 13:24:14;;;;;;;24.67;8.38;;;;;;;;;;5023681;28;20021;-68
2022/10/29 13:26:53;;;;;;;28.55;8.55;;;;;;;;;;5021586;28;20017;-68
2022/10/29 13:29:37;;;;;;;39.03;8.32;;;;;;;;;;5022340;28;20021;-68
2022/10/29 13:32:04;;;;;;;29.83;7.35;;;;;;;;;;5022511;28;20132;-67
2022/10/29 13:34:52;;;;;;;24.20;7.55;;;;;;;;;;5024604;28;20033;-67
2022/10/29 13:37:35;;;;;;;21.53;6.90;;;;;;;;;;5020471;28;20026;-68
2022/10/29 13:40:19;;;;;;;28.65;7.72;;;;;;;;;;5023182;28;20631;-67
2022/10/29 13:42:45;;;;;;;46.25;9.65;;;;;;;;;;5021972;28;20026;-69
2022/10/29 13:45:12;;;;;;;26.55;7.88;;;;;;;;;;5024272;28;20028;-67
2022/10/29 13:47:39;;;;;;;23.98;8.30;;;;;;;;;;5023272;28;20021;-71
2022/10/29 13:50:05;;;;;;;24.02;7.15;;;;;;;;;;5022193;28;20028;-68
2022/10/29 13:52:34;;;;;;;22.15;6.28;;;;;;;;;;5023416;28;20040;-72
2022/10/29 13:55:01;;;;;;;34.95;7.80;;;;;;;;;;5022741;28;20044;-68
2022/10/29 13:57:27;;;;;;;22.17;6.85;;;;;;;;;;5022675;28;20040;-69
2022/10/29 14:00:05;;;;;;;22.90;7.80;;;;;;;;;;5023395;28;20081;-68
2022/10/29 14:02:40;;;;;;;32.67;7.32;;;;;;;;;;5025647;28;20318;-68
2022/10/29 14:05:05;;;;;;;25.55;8.02;;;;;;;;;;5024703;28;20596;-67
2022/10/29 14:07:40;;;;;;;27.08;7.22;;;;;;;;;;5023623;28;20098;-68
2022/10/29 14:10:07;;;;;;;20.15;7.00;;;;;;;;;;5025852;28;20025;-68
2022/10/29 14:12:32;;;;;;;29.00;7.53;;;;;;;;;;5025649;28;20110;-69
2022/10/29 14:15:01;;;;;;;28.13;7.93;;;;;;;;;;5023146;28;20329;-67
2022/10/29 14:17:26;;;;;;;24.67;6.38;;;;;;;;;;5020144;28;20481;-67
2022/10/29 14:19:51;;;;;;;29.67;7.60;;;;;;;;;;5024365;28;20491;-69
2022/10/29 14:22:32;;;;;;;23.55;6.55;;;;;;;;;;5022121;28;20124;-69
2022/10/29 14:24:57;;;;;;;36.45;8.43;;;;;;;;;;5017876;28;20033;-68
2022/10/29 14:27:22;;;;;;;30.38;7.45;;;;;;;;;;5020792;28;20252;-67
2022/10/29 14:29:47;;;;;;;31.42;8.18;;;;;;;;;;5022903;28;20037;-67
2022/10/29 14:32:17;;;;;;;24.33;7.18;;;;;;;;;;5022433;28;20045;-68
2022/10/29 14:34:44;;;;;;;19.75;5.80;;;;;;;;;;5023273;28;20055;-70
2022/10/29 14:37:18;;;;;;;17.65;7.05;;;;;;;;;;5022314;28;20033;-70
2022/10/29 14:39:48;;;;;;;20.10;6.78;;;;;;;;;;5024213;28;20025;-67